Los Coyotes, Texas
Current Conditions -  °F | °C
As of 10:08 AM on Monday 22 Dec 2014 (Local Time) from KHRL Reporting Station
Overcast Overcast  
Wind Chill: 66°   Ceiling: 600
Heat Index: 66°   Visibility: 10mi
Dew Point: 64°   Wind: 13mph
Humidity: 94%   Direction: 200°SSW
Pressure: 29.79"   Gusts: NA
Location:  26.4075°N, 97.7282°W
Report Text: KHRL 221608Z 20011KT 10SM OVC006 19/18 A2979 RMK AO2 CIG 004V009
Loading
Personal Weather Stations






























Interactive Weather Map New forecast layout! Learn more

10-Day Weather Forecast

Advertisements
Track Severe Weather on mobile